Garrison, New York
Current Conditions -  °F | °C
As of 9:45 PM on Wednesday 17 Dec 2014 (Local Time) from KSWF Reporting Station
Overcast Overcast  
Wind Chill: 32°   Ceiling: 3500
Heat Index: 39°   Visibility: 10mi
Dew Point: 34°   Wind: 12mph
Humidity: 81%   Direction: 270°W
Pressure: 29.88"   Gusts: NA
Location:  41.38°N, 73.95°W
Report Text: KSWF 180245Z 27010KT 10SM OVC035 04/01 A2988
Loading
Personal Weather Stations






























Interactive Weather Map New forecast layout! Learn more

10-Day Weather Forecast

Advertisements
Track Severe Weather on mobile